sensor_id;sensor_type;location;lat;lon;timestamp;temperature;humidity
48604;DHT22;32708;51.212;6.788;2022-09-09T00:02:02;17.40;92.30
48604;DHT22;32708;51.212;6.788;2022-09-09T00:04:34;17.40;92.10
48604;DHT22;32708;51.212;6.788;2022-09-09T00:07:18;17.30;93.20
48604;DHT22;32708;51.212;6.788;2022-09-09T00:18:29;17.20;96.60
48604;DHT22;32708;51.212;6.788;2022-09-09T00:21:15;17.10;97.20
48604;DHT22;32708;51.212;6.788;2022-09-09T00:23:53;17.10;97.40
48604;DHT22;32708;51.212;6.788;2022-09-09T00:31:38;17.10;97.50
48604;DHT22;32708;51.212;6.788;2022-09-09T00:34:14;18.10;97.10
48604;DHT22;32708;51.212;6.788;2022-09-09T00:36:42;17.30;97.00
48604;DHT22;32708;51.212;6.788;2022-09-09T00:39:57;17.30;96.90
48604;DHT22;32708;51.212;6.788;2022-09-09T00:42:25;17.30;97.30
48604;DHT22;32708;51.212;6.788;2022-09-09T00:44:53;17.20;97.80
48604;DHT22;32708;51.212;6.788;2022-09-09T00:50:56;17.30;98.90
48604;DHT22;32708;51.212;6.788;2022-09-09T00:56:38;17.40;98.00
48604;DHT22;32708;51.212;6.788;2022-09-09T01:02:16;17.40;98.50
48604;DHT22;32708;51.212;6.788;2022-09-09T01:04:43;17.40;98.90
48604;DHT22;32708;51.212;6.788;2022-09-09T01:07:17;17.40;99.10
48604;DHT22;32708;51.212;6.788;2022-09-09T01:09:52;17.30;99.60
48604;DHT22;32708;51.212;6.788;2022-09-09T01:12:38;17.40;99.20
48604;DHT22;32708;51.212;6.788;2022-09-09T01:15:25;17.30;98.90
48604;DHT22;32708;51.212;6.788;2022-09-09T01:18:20;17.20;99.80
48604;DHT22;32708;51.212;6.788;2022-09-09T01:24:15;17.30;99.10
48604;DHT22;32708;51.212;6.788;2022-09-09T01:27:07;17.20;98.50
48604;DHT22;32708;51.212;6.788;2022-09-09T01:29:33;17.40;95.90
48604;DHT22;32708;51.212;6.788;2022-09-09T01:32:02;17.20;97.80
48604;DHT22;32708;51.212;6.788;2022-09-09T01:34:39;17.20;95.50
48604;DHT22;32708;51.212;6.788;2022-09-09T01:37:10;17.40;93.80
48604;DHT22;32708;51.212;6.788;2022-09-09T01:39:41;17.40;94.30
48604;DHT22;32708;51.212;6.788;2022-09-09T01:42:14;17.30;94.10
48604;DHT22;32708;51.212;6.788;2022-09-09T01:44:42;17.10;96.00
48604;DHT22;32708;51.212;6.788;2022-09-09T01:47:08;17.20;93.60
48604;DHT22;32708;51.212;6.788;2022-09-09T01:49:45;17.30;93.00
48604;DHT22;32708;51.212;6.788;2022-09-09T01:52:19;17.40;93.10
48604;DHT22;32708;51.212;6.788;2022-09-09T01:54:45;17.40;93.50
48604;DHT22;32708;51.212;6.788;2022-09-09T01:57:20;17.40;94.30
48604;DHT22;32708;51.212;6.788;2022-09-09T02:00:04;17.50;93.90
48604;DHT22;32708;51.212;6.788;2022-09-09T02:08:53;17.50;93.90
48604;DHT22;32708;51.212;6.788;2022-09-09T02:13:47;17.60;92.80
48604;DHT22;32708;51.212;6.788;2022-09-09T02:16:44;17.60;92.80
48604;DHT22;32708;51.212;6.788;2022-09-09T02:19:15;17.60;93.10
48604;DHT22;32708;51.212;6.788;2022-09-09T02:21:59;17.60;92.80
48604;DHT22;32708;51.212;6.788;2022-09-09T02:24:30;17.50;92.30
48604;DHT22;32708;51.212;6.788;2022-09-09T02:27:11;17.60;92.30
48604;DHT22;32708;51.212;6.788;2022-09-09T02:29:42;17.60;92.40
48604;DHT22;32708;51.212;6.788;2022-09-09T02:32:23;17.50;92.60
48604;DHT22;32708;51.212;6.788;2022-09-09T02:35:17;17.60;92.00
48604;DHT22;32708;51.212;6.788;2022-09-09T02:37:44;17.50;92.20
48604;DHT22;32708;51.212;6.788;2022-09-09T02:40:14;17.50;92.60
48604;DHT22;32708;51.212;6.788;2022-09-09T02:42:47;17.50;92.30
48604;DHT22;32708;51.212;6.788;2022-09-09T02:45:18;17.50;93.00
48604;DHT22;32708;51.212;6.788;2022-09-09T02:51:00;17.60;91.60
48604;DHT22;32708;51.212;6.788;2022-09-09T02:54:04;17.60;91.40
48604;DHT22;32708;51.212;6.788;2022-09-09T02:56:42;17.50;92.40
48604;DHT22;32708;51.212;6.788;2022-09-09T02:59:12;17.50;91.70
48604;DHT22;32708;51.212;6.788;2022-09-09T03:01:39;17.50;91.10
48604;DHT22;32708;51.212;6.788;2022-09-09T03:04:06;17.40;91.10
48604;DHT22;32708;51.212;6.788;2022-09-09T03:06:33;17.50;90.00
48604;DHT22;32708;51.212;6.788;2022-09-09T03:09:08;17.50;89.50
48604;DHT22;32708;51.212;6.788;2022-09-09T03:11:36;17.40;88.50
48604;DHT22;32708;51.212;6.788;2022-09-09T03:14:04;17.50;87.80
48604;DHT22;32708;51.212;6.788;2022-09-09T03:16:31;17.50;85.90
48604;DHT22;32708;51.212;6.788;2022-09-09T03:19:01;17.50;84.80
48604;DHT22;32708;51.212;6.788;2022-09-09T03:21:31;17.50;85.00
48604;DHT22;32708;51.212;6.788;2022-09-09T03:23:59;17.50;83.80
48604;DHT22;32708;51.212;6.788;2022-09-09T03:26:25;17.50;83.00
48604;DHT22;32708;51.212;6.788;2022-09-09T03:28:50;17.50;84.00
48604;DHT22;32708;51.212;6.788;2022-09-09T03:31:18;17.50;85.40
48604;DHT22;32708;51.212;6.788;2022-09-09T03:33:45;17.50;85.00
48604;DHT22;32708;51.212;6.788;2022-09-09T03:36:14;17.50;84.30
48604;DHT22;32708;51.212;6.788;2022-09-09T03:38:41;17.50;83.20
48604;DHT22;32708;51.212;6.788;2022-09-09T03:41:08;17.50;83.50
48604;DHT22;32708;51.212;6.788;2022-09-09T03:43:34;17.50;83.10
48604;DHT22;32708;51.212;6.788;2022-09-09T03:46:01;17.60;83.30
48604;DHT22;32708;51.212;6.788;2022-09-09T03:48:28;17.50;83.40
48604;DHT22;32708;51.212;6.788;2022-09-09T03:50:55;17.50;84.40
48604;DHT22;32708;51.212;6.788;2022-09-09T03:53:28;17.50;84.10
48604;DHT22;32708;51.212;6.788;2022-09-09T03:55:56;17.50;84.00
48604;DHT22;32708;51.212;6.788;2022-09-09T03:58:27;17.40;83.60
48604;DHT22;32708;51.212;6.788;2022-09-09T04:01:02;17.40;84.00
48604;DHT22;32708;51.212;6.788;2022-09-09T04:03:29;17.40;85.30
48604;DHT22;32708;51.212;6.788;2022-09-09T04:05:58;17.40;84.10
48604;DHT22;32708;51.212;6.788;2022-09-09T04:08:29;17.50;82.90
48604;DHT22;32708;51.212;6.788;2022-09-09T04:11:01;17.50;83.80
48604;DHT22;32708;51.212;6.788;2022-09-09T04:13:33;17.40;84.00
48604;DHT22;32708;51.212;6.788;2022-09-09T04:16:02;17.40;85.60
48604;DHT22;32708;51.212;6.788;2022-09-09T04:18:30;17.40;88.40
48604;DHT22;32708;51.212;6.788;2022-09-09T04:21:02;17.50;87.40
48604;DHT22;32708;51.212;6.788;2022-09-09T04:23:34;17.50;87.80
48604;DHT22;32708;51.212;6.788;2022-09-09T04:26:02;17.40;88.90
48604;DHT22;32708;51.212;6.788;2022-09-09T04:28:30;17.50;87.10
48604;DHT22;32708;51.212;6.788;2022-09-09T04:31:07;17.40;88.60
48604;DHT22;32708;51.212;6.788;2022-09-09T04:33:35;17.40;86.90
48604;DHT22;32708;51.212;6.788;2022-09-09T04:36:01;17.50;87.20
48604;DHT22;32708;51.212;6.788;2022-09-09T04:38:29;17.50;86.00
48604;DHT22;32708;51.212;6.788;2022-09-09T04:40:55;17.50;86.60
48604;DHT22;32708;51.212;6.788;2022-09-09T04:43:21;17.50;85.00
48604;DHT22;32708;51.212;6.788;2022-09-09T04:45:50;17.50;84.90
48604;DHT22;32708;51.212;6.788;2022-09-09T04:48:22;17.60;82.70
48604;DHT22;32708;51.212;6.788;2022-09-09T04:51:02;17.70;82.30
48604;DHT22;32708;51.212;6.788;2022-09-09T04:53:33;17.70;80.80
48604;DHT22;32708;51.212;6.788;2022-09-09T04:56:10;17.70;79.00
48604;DHT22;32708;51.212;6.788;2022-09-09T04:58:42;17.70;76.50
48604;DHT22;32708;51.212;6.788;2022-09-09T05:01:18;17.80;75.20
48604;DHT22;32708;51.212;6.788;2022-09-09T05:03:46;17.80;73.70
48604;DHT22;32708;51.212;6.788;2022-09-09T05:06:19;17.80;75.50
48604;DHT22;32708;51.212;6.788;2022-09-09T05:08:51;17.80;75.10
48604;DHT22;32708;51.212;6.788;2022-09-09T05:11:27;17.80;72.30
48604;DHT22;32708;51.212;6.788;2022-09-09T05:13:57;18.00;68.80
48604;DHT22;32708;51.212;6.788;2022-09-09T05:16:24;18.00;69.80
48604;DHT22;32708;51.212;6.788;2022-09-09T05:18:50;18.00;68.60
48604;DHT22;32708;51.212;6.788;2022-09-09T05:21:20;18.00;67.00
48604;DHT22;32708;51.212;6.788;2022-09-09T05:23:50;18.00;67.20
48604;DHT22;32708;51.212;6.788;2022-09-09T05:26:24;18.30;65.20
48604;DHT22;32708;51.212;6.788;2022-09-09T05:28:58;18.10;63.70
48604;DHT22;32708;51.212;6.788;2022-09-09T05:31:30;18.10;65.10
48604;DHT22;32708;51.212;6.788;2022-09-09T05:33:56;18.10;63.70
48604;DHT22;32708;51.212;6.788;2022-09-09T05:36:23;18.00;67.40
48604;DHT22;32708;51.212;6.788;2022-09-09T05:38:53;18.00;71.50
48604;DHT22;32708;51.212;6.788;2022-09-09T05:41:20;17.90;72.90
48604;DHT22;32708;51.212;6.788;2022-09-09T05:43:46;18.00;70.50
48604;DHT22;32708;51.212;6.788;2022-09-09T05:46:26;18.00;69.70
48604;DHT22;32708;51.212;6.788;2022-09-09T05:48:55;18.10;69.50
48604;DHT22;32708;51.212;6.788;2022-09-09T05:51:29;18.10;66.50
48604;DHT22;32708;51.212;6.788;2022-09-09T05:54:04;18.20;63.60
48604;DHT22;32708;51.212;6.788;2022-09-09T05:56:33;18.20;65.10
48604;DHT22;32708;51.212;6.788;2022-09-09T05:59:00;18.30;58.30
48604;DHT22;32708;51.212;6.788;2022-09-09T06:01:33;18.40;54.70
48604;DHT22;32708;51.212;6.788;2022-09-09T06:04:02;18.40;51.10
48604;DHT22;32708;51.212;6.788;2022-09-09T06:06:33;18.50;45.20
48604;DHT22;32708;51.212;6.788;2022-09-09T06:09:11;18.50;40.40
48604;DHT22;32708;51.212;6.788;2022-09-09T06:11:40;18.50;39.30
48604;DHT22;32708;51.212;6.788;2022-09-09T06:14:07;18.50;37.10
48604;DHT22;32708;51.212;6.788;2022-09-09T06:16:35;18.60;33.40
48604;DHT22;32708;51.212;6.788;2022-09-09T06:19:05;18.60;28.80
48604;DHT22;32708;51.212;6.788;2022-09-09T06:21:34;18.80;29.40
48604;DHT22;32708;51.212;6.788;2022-09-09T06:24:08;18.70;24.70
48604;DHT22;32708;51.212;6.788;2022-09-09T06:26:37;18.80;17.40
48604;DHT22;32708;51.212;6.788;2022-09-09T06:29:07;18.80;23.30
48604;DHT22;32708;51.212;6.788;2022-09-09T06:31:35;18.80;18.00
48604;DHT22;32708;51.212;6.788;2022-09-09T06:34:31;18.80;14.80
48604;DHT22;32708;51.212;6.788;2022-09-09T06:36:58;18.80;12.00
48604;DHT22;32708;51.212;6.788;2022-09-09T06:39:27;18.70;15.80
48604;DHT22;32708;51.212;6.788;2022-09-09T06:41:54;18.70;12.60
48604;DHT22;32708;51.212;6.788;2022-09-09T06:44:39;18.80;11.50
48604;DHT22;32708;51.212;6.788;2022-09-09T06:47:10;19.40;1.00
48604;DHT22;32708;51.212;6.788;2022-09-09T06:49:38;19.60;1.00
48604;DHT22;32708;51.212;6.788;2022-09-09T06:52:08;20.10;99.90
48604;DHT22;32708;51.212;6.788;2022-09-09T06:54:35;20.80;99.90
48604;DHT22;32708;51.212;6.788;2022-09-09T06:57:03;21.20;54.50
48604;DHT22;32708;51.212;6.788;2022-09-09T06:59:29;21.50;99.90
48604;DHT22;32708;51.212;6.788;2022-09-09T07:01:58;21.00;99.90
48604;DHT22;32708;51.212;6.788;2022-09-09T07:04:24;20.30;90.30
48604;DHT22;32708;51.212;6.788;2022-09-09T07:06:52;19.90;99.90
48604;DHT22;32708;51.212;6.788;2022-09-09T07:09:22;19.70;99.90
48604;DHT22;32708;51.212;6.788;2022-09-09T07:11:51;19.60;99.90
48604;DHT22;32708;51.212;6.788;2022-09-09T07:14:22;19.60;1.00
48604;DHT22;32708;51.212;6.788;2022-09-09T07:16:54;19.60;99.90
48604;DHT22;32708;51.212;6.788;2022-09-09T07:19:20;19.50;99.90
48604;DHT22;32708;51.212;6.788;2022-09-09T07:21:50;19.60;99.90
48604;DHT22;32708;51.212;6.788;2022-09-09T07:24:18;19.60;99.90
48604;DHT22;32708;51.212;6.788;2022-09-09T07:26:46;19.40;99.90
48604;DHT22;32708;51.212;6.788;2022-09-09T07:29:12;19.40;99.90
48604;DHT22;32708;51.212;6.788;2022-09-09T07:31:41;19.60;99.90
48604;DHT22;32708;51.212;6.788;2022-09-09T07:34:13;19.70;99.90
48604;DHT22;32708;51.212;6.788;2022-09-09T07:36:40;19.50;99.90
48604;DHT22;32708;51.212;6.788;2022-09-09T07:39:12;19.60;99.90
48604;DHT22;32708;51.212;6.788;2022-09-09T07:41:48;19.80;99.90
48604;DHT22;32708;51.212;6.788;2022-09-09T07:44:19;19.80;99.90
48604;DHT22;32708;51.212;6.788;2022-09-09T07:46:50;19.70;99.90
48604;DHT22;32708;51.212;6.788;2022-09-09T07:49:22;19.80;99.90
48604;DHT22;32708;51.212;6.788;2022-09-09T07:51:48;19.70;99.90
48604;DHT22;32708;51.212;6.788;2022-09-09T07:54:18;19.40;99.90
48604;DHT22;32708;51.212;6.788;2022-09-09T07:56:51;19.60;99.90
48604;DHT22;32708;51.212;6.788;2022-09-09T07:59:20;19.70;42.60
48604;DHT22;32708;51.212;6.788;2022-09-09T08:01:50;19.70;10.50
48604;DHT22;32708;51.212;6.788;2022-09-09T08:04:23;19.80;99.90
48604;DHT22;32708;51.212;6.788;2022-09-09T08:06:56;19.70;1.00
48604;DHT22;32708;51.212;6.788;2022-09-09T08:09:46;19.60;1.00
48604;DHT22;32708;51.212;6.788;2022-09-09T08:12:19;19.50;1.00
48604;DHT22;32708;51.212;6.788;2022-09-09T08:14:45;19.40;99.90
48604;DHT22;32708;51.212;6.788;2022-09-09T08:17:11;19.40;99.90
48604;DHT22;32708;51.212;6.788;2022-09-09T08:19:38;19.70;1.00
48604;DHT22;32708;51.212;6.788;2022-09-09T08:22:09;19.70;99.90
48604;DHT22;32708;51.212;6.788;2022-09-09T08:24:38;20.00;99.90
48604;DHT22;32708;51.212;6.788;2022-09-09T08:27:05;19.90;99.90
48604;DHT22;32708;51.212;6.788;2022-09-09T08:29:31;20.10;99.90
48604;DHT22;32708;51.212;6.788;2022-09-09T08:31:58;20.50;99.90
48604;DHT22;32708;51.212;6.788;2022-09-09T08:34:27;20.90;99.90
48604;DHT22;32708;51.212;6.788;2022-09-09T08:36:54;21.20;1.80
48604;DHT22;32708;51.212;6.788;2022-09-09T08:39:27;21.30;99.90
48604;DHT22;32708;51.212;6.788;2022-09-09T08:52:27;20.90;99.90
48604;DHT22;32708;51.212;6.788;2022-09-09T08:57:43;20.60;99.90
48604;DHT22;32708;51.212;6.788;2022-09-09T09:00:12;20.40;99.90
48604;DHT22;32708;51.212;6.788;2022-09-09T09:33:44;20.30;99.90
48604;DHT22;32708;51.212;6.788;2022-09-09T09:36:13;20.40;99.90
48604;DHT22;32708;51.212;6.788;2022-09-09T09:39:00;20.60;99.90
48604;DHT22;32708;51.212;6.788;2022-09-09T09:41:40;20.80;99.90
48604;DHT22;32708;51.212;6.788;2022-09-09T09:44:25;21.00;99.90
48604;DHT22;32708;51.212;6.788;2022-09-09T09:46:52;21.20;99.90
48604;DHT22;32708;51.212;6.788;2022-09-09T09:49:19;22.10;1.00
48604;DHT22;32708;51.212;6.788;2022-09-09T09:54:41;22.70;99.90
48604;DHT22;32708;51.212;6.788;2022-09-09T09:57:11;22.70;99.90
48604;DHT22;32708;51.212;6.788;2022-09-09T09:59:38;22.40;99.90
48604;DHT22;32708;51.212;6.788;2022-09-09T10:02:25;22.10;99.90
48604;DHT22;32708;51.212;6.788;2022-09-09T10:07:40;21.50;99.90
48604;DHT22;32708;51.212;6.788;2022-09-09T10:10:18;21.40;99.90
48604;DHT22;32708;51.212;6.788;2022-09-09T10:15:48;21.70;99.90
48604;DHT22;32708;51.212;6.788;2022-09-09T10:24:04;22.00;99.90
48604;DHT22;32708;51.212;6.788;2022-09-09T10:34:53;21.90;99.90
48604;DHT22;32708;51.212;6.788;2022-09-09T10:40:28;21.90;99.90
48604;DHT22;32708;51.212;6.788;2022-09-09T10:56:34;21.60;99.90
48604;DHT22;32708;51.212;6.788;2022-09-09T10:59:17;21.50;99.90
48604;DHT22;32708;51.212;6.788;2022-09-09T11:01:52;21.50;99.90
48604;DHT22;32708;51.212;6.788;2022-09-09T11:04:28;21.20;99.90
48604;DHT22;32708;51.212;6.788;2022-09-09T11:07:06;21.20;99.90
48604;DHT22;32708;51.212;6.788;2022-09-09T11:09:41;21.30;99.90
48604;DHT22;32708;51.212;6.788;2022-09-09T11:12:16;21.30;99.90
48604;DHT22;32708;51.212;6.788;2022-09-09T11:17:56;21.00;99.90
48604;DHT22;32708;51.212;6.788;2022-09-09T11:20:23;20.80;11.50
48604;DHT22;32708;51.212;6.788;2022-09-09T11:23:02;20.90;43.60
48604;DHT22;32708;51.212;6.788;2022-09-09T11:37:53;20.60;99.90
48604;DHT22;32708;51.212;6.788;2022-09-09T11:40:24;21.00;1.00
48604;DHT22;32708;51.212;6.788;2022-09-09T11:43:21;21.30;20.40
48604;DHT22;32708;51.212;6.788;2022-09-09T11:45:58;21.40;99.90
48604;DHT22;32708;51.212;6.788;2022-09-09T11:49:23;21.60;99.90
48604;DHT22;32708;51.212;6.788;2022-09-09T11:53:56;21.60;99.90
48604;DHT22;32708;51.212;6.788;2022-09-09T11:56:30;21.40;99.90
48604;DHT22;32708;51.212;6.788;2022-09-09T11:59:01;21.30;99.90
48604;DHT22;32708;51.212;6.788;2022-09-09T12:01:34;21.10;99.90
48604;DHT22;32708;51.212;6.788;2022-09-09T12:04:17;21.10;99.90
48604;DHT22;32708;51.212;6.788;2022-09-09T12:12:36;21.40;99.90
48604;DHT22;32708;51.212;6.788;2022-09-09T12:17:54;22.10;99.90
48604;DHT22;32708;51.212;6.788;2022-09-09T12:20:37;22.50;2.50
48604;DHT22;32708;51.212;6.788;2022-09-09T12:23:29;22.60;1.00
48604;DHT22;32708;51.212;6.788;2022-09-09T12:26:25;22.50;1.00
48604;DHT22;32708;51.212;6.788;2022-09-09T12:31:56;22.70;1.00
48604;DHT22;32708;51.212;6.788;2022-09-09T12:34:30;22.40;1.00
48604;DHT22;32708;51.212;6.788;2022-09-09T12:39:58;21.80;1.00
48604;DHT22;32708;51.212;6.788;2022-09-09T12:42:26;22.00;1.00
48604;DHT22;32708;51.212;6.788;2022-09-09T12:44:57;22.30;1.00
48604;DHT22;32708;51.212;6.788;2022-09-09T12:47:40;22.30;1.00
48604;DHT22;32708;51.212;6.788;2022-09-09T12:50:35;22.20;1.00
48604;DHT22;32708;51.212;6.788;2022-09-09T12:53:12;21.90;1.00
48604;DHT22;32708;51.212;6.788;2022-09-09T12:55:51;21.90;1.00
48604;DHT22;32708;51.212;6.788;2022-09-09T12:58:20;21.70;1.00
48604;DHT22;32708;51.212;6.788;2022-09-09T13:00:51;21.60;1.00
48604;DHT22;32708;51.212;6.788;2022-09-09T13:03:20;21.60;1.00
48604;DHT22;32708;51.212;6.788;2022-09-09T13:06:22;21.50;1.00
48604;DHT22;32708;51.212;6.788;2022-09-09T13:09:00;21.60;14.00
48604;DHT22;32708;51.212;6.788;2022-09-09T13:11:43;21.70;99.90
48604;DHT22;32708;51.212;6.788;2022-09-09T13:14:29;21.80;99.90
48604;DHT22;32708;51.212;6.788;2022-09-09T13:17:03;21.90;99.90
48604;DHT22;32708;51.212;6.788;2022-09-09T13:19:37;21.70;1.00
48604;DHT22;32708;51.212;6.788;2022-09-09T13:22:29;21.80;1.00
48604;DHT22;32708;51.212;6.788;2022-09-09T13:25:01;21.60;1.00
48604;DHT22;32708;51.212;6.788;2022-09-09T13:27:34;21.60;99.90
48604;DHT22;32708;51.212;6.788;2022-09-09T13:30:26;21.60;99.90
48604;DHT22;32708;51.212;6.788;2022-09-09T13:35:51;21.40;99.90
48604;DHT22;32708;51.212;6.788;2022-09-09T13:38:19;21.40;99.90
48604;DHT22;32708;51.212;6.788;2022-09-09T13:40:57;21.60;99.90
48604;DHT22;32708;51.212;6.788;2022-09-09T13:43:44;21.60;99.90
48604;DHT22;32708;51.212;6.788;2022-09-09T13:46:40;21.60;99.90
48604;DHT22;32708;51.212;6.788;2022-09-09T13:51:49;21.70;99.90
48604;DHT22;32708;51.212;6.788;2022-09-09T13:54:20;21.60;99.90
48604;DHT22;32708;51.212;6.788;2022-09-09T13:56:54;21.40;99.90
48604;DHT22;32708;51.212;6.788;2022-09-09T13:59:42;21.30;99.90
48604;DHT22;32708;51.212;6.788;2022-09-09T14:02:08;21.30;1.00
48604;DHT22;32708;51.212;6.788;2022-09-09T14:04:34;21.40;99.90
48604;DHT22;32708;51.212;6.788;2022-09-09T14:07:03;21.30;99.90
48604;DHT22;32708;51.212;6.788;2022-09-09T14:09:30;21.30;99.90
48604;DHT22;32708;51.212;6.788;2022-09-09T14:11:56;21.30;30.20
48604;DHT22;32708;51.212;6.788;2022-09-09T14:14:22;21.40;1.00
48604;DHT22;32708;51.212;6.788;2022-09-09T14:17:21;21.60;99.90
48604;DHT22;32708;51.212;6.788;2022-09-09T14:19:55;21.70;99.90
48604;DHT22;32708;51.212;6.788;2022-09-09T14:22:32;22.00;99.90
48604;DHT22;32708;51.212;6.788;2022-09-09T14:24:58;21.80;99.90
48604;DHT22;32708;51.212;6.788;2022-09-09T14:27:24;22.00;99.90
48604;DHT22;32708;51.212;6.788;2022-09-09T14:29:52;21.70;99.90
48604;DHT22;32708;51.212;6.788;2022-09-09T14:32:19;21.60;99.90
48604;DHT22;32708;51.212;6.788;2022-09-09T14:34:45;21.70;99.90
48604;DHT22;32708;51.212;6.788;2022-09-09T14:38:05;21.50;99.90
48604;DHT22;32708;51.212;6.788;2022-09-09T14:40:36;21.00;99.90
48604;DHT22;32708;51.212;6.788;2022-09-09T14:43:06;20.70;99.90
48604;DHT22;32708;51.212;6.788;2022-09-09T14:45:32;20.50;99.90
48604;DHT22;32708;51.212;6.788;2022-09-09T14:48:01;20.20;99.90
48604;DHT22;32708;51.212;6.788;2022-09-09T14:50:35;18.30;26.50
48604;DHT22;32708;51.212;6.788;2022-09-09T14:53:09;17.10;98.00
48604;DHT22;32708;51.212;6.788;2022-09-09T14:55:36;16.60;99.90
48604;DHT22;32708;51.212;6.788;2022-09-09T14:58:03;16.30;99.90
48604;DHT22;32708;51.212;6.788;2022-09-09T15:00:29;16.10;99.90
48604;DHT22;32708;51.212;6.788;2022-09-09T15:02:56;16.10;99.90
48604;DHT22;32708;51.212;6.788;2022-09-09T15:05:22;16.20;99.90
48604;DHT22;32708;51.212;6.788;2022-09-09T15:07:50;16.30;99.90
48604;DHT22;32708;51.212;6.788;2022-09-09T15:10:17;16.30;99.90
48604;DHT22;32708;51.212;6.788;2022-09-09T15:12:44;16.40;99.90
48604;DHT22;32708;51.212;6.788;2022-09-09T15:15:10;16.30;99.90
48604;DHT22;32708;51.212;6.788;2022-09-09T15:17:38;16.60;99.90
48604;DHT22;32708;51.212;6.788;2022-09-09T15:20:06;16.90;99.90
48604;DHT22;32708;51.212;6.788;2022-09-09T15:22:33;17.10;99.90
48604;DHT22;32708;51.212;6.788;2022-09-09T15:25:00;17.30;99.90
48604;DHT22;32708;51.212;6.788;2022-09-09T15:27:26;17.40;99.90
48604;DHT22;32708;51.212;6.788;2022-09-09T15:29:52;17.40;99.90
48604;DHT22;32708;51.212;6.788;2022-09-09T15:32:19;17.50;99.90
48604;DHT22;32708;51.212;6.788;2022-09-09T15:34:45;17.70;99.90
48604;DHT22;32708;51.212;6.788;2022-09-09T15:37:12;17.50;99.90
48604;DHT22;32708;51.212;6.788;2022-09-09T15:39:40;17.50;99.90
48604;DHT22;32708;51.212;6.788;2022-09-09T15:42:08;17.70;99.90
48604;DHT22;32708;51.212;6.788;2022-09-09T15:44:40;17.70;99.90
48604;DHT22;32708;51.212;6.788;2022-09-09T15:47:12;17.80;99.90
48604;DHT22;32708;51.212;6.788;2022-09-09T15:49:41;17.80;99.90
48604;DHT22;32708;51.212;6.788;2022-09-09T15:52:14;17.80;99.90
48604;DHT22;32708;51.212;6.788;2022-09-09T15:54:40;17.90;99.90
48604;DHT22;32708;51.212;6.788;2022-09-09T15:57:11;17.70;99.90
48604;DHT22;32708;51.212;6.788;2022-09-09T15:59:38;17.90;99.90
48604;DHT22;32708;51.212;6.788;2022-09-09T16:02:05;17.90;99.90
48604;DHT22;32708;51.212;6.788;2022-09-09T16:04:33;17.60;99.90
48604;DHT22;32708;51.212;6.788;2022-09-09T16:07:03;17.50;99.90
48604;DHT22;32708;51.212;6.788;2022-09-09T16:09:30;17.30;99.90
48604;DHT22;32708;51.212;6.788;2022-09-09T16:11:59;17.30;99.90
48604;DHT22;32708;51.212;6.788;2022-09-09T16:14:26;17.40;99.90
48604;DHT22;32708;51.212;6.788;2022-09-09T16:16:53;17.40;99.90
48604;DHT22;32708;51.212;6.788;2022-09-09T16:19:21;17.30;99.90
48604;DHT22;32708;51.212;6.788;2022-09-09T16:21:49;17.30;99.90
48604;DHT22;32708;51.212;6.788;2022-09-09T16:24:18;17.20;99.90
48604;DHT22;32708;51.212;6.788;2022-09-09T16:26:47;17.20;99.90
48604;DHT22;32708;51.212;6.788;2022-09-09T16:29:15;17.10;99.90
48604;DHT22;32708;51.212;6.788;2022-09-09T16:31:44;17.10;99.90
48604;DHT22;32708;51.212;6.788;2022-09-09T16:34:11;17.10;99.90
48604;DHT22;32708;51.212;6.788;2022-09-09T16:36:39;17.20;99.90
48604;DHT22;32708;51.212;6.788;2022-09-09T16:39:09;17.10;99.90
48604;DHT22;32708;51.212;6.788;2022-09-09T16:41:36;17.20;99.90
48604;DHT22;32708;51.212;6.788;2022-09-09T16:44:05;17.20;99.90
48604;DHT22;32708;51.212;6.788;2022-09-09T16:46:36;17.20;99.90
48604;DHT22;32708;51.212;6.788;2022-09-09T16:49:08;17.30;99.90
48604;DHT22;32708;51.212;6.788;2022-09-09T16:51:37;17.20;99.90
48604;DHT22;32708;51.212;6.788;2022-09-09T16:54:06;17.20;99.90
48604;DHT22;32708;51.212;6.788;2022-09-09T16:56:35;17.30;99.90
48604;DHT22;32708;51.212;6.788;2022-09-09T16:59:15;17.40;99.90
48604;DHT22;32708;51.212;6.788;2022-09-09T17:01:43;17.40;99.90
48604;DHT22;32708;51.212;6.788;2022-09-09T17:04:13;17.40;99.90
48604;DHT22;32708;51.212;6.788;2022-09-09T17:06:41;17.50;99.90
48604;DHT22;32708;51.212;6.788;2022-09-09T17:09:11;17.50;99.90
48604;DHT22;32708;51.212;6.788;2022-09-09T17:11:39;17.60;99.90
48604;DHT22;32708;51.212;6.788;2022-09-09T17:14:08;17.60;99.90
48604;DHT22;32708;51.212;6.788;2022-09-09T17:16:35;17.50;99.90
48604;DHT22;32708;51.212;6.788;2022-09-09T17:19:03;17.60;99.90
48604;DHT22;32708;51.212;6.788;2022-09-09T17:21:31;17.70;99.90
48604;DHT22;32708;51.212;6.788;2022-09-09T17:23:57;17.70;99.90
48604;DHT22;32708;51.212;6.788;2022-09-09T17:26:27;17.70;99.90
48604;DHT22;32708;51.212;6.788;2022-09-09T17:28:55;17.70;99.90
48604;DHT22;32708;51.212;6.788;2022-09-09T17:31:22;17.70;99.90
48604;DHT22;32708;51.212;6.788;2022-09-09T17:33:50;17.70;99.90
48604;DHT22;32708;51.212;6.788;2022-09-09T17:36:33;17.70;99.90
48604;DHT22;32708;51.212;6.788;2022-09-09T17:39:01;17.80;99.90
48604;DHT22;32708;51.212;6.788;2022-09-09T17:41:30;17.90;99.90
48604;DHT22;32708;51.212;6.788;2022-09-09T17:43:58;17.80;99.90
48604;DHT22;32708;51.212;6.788;2022-09-09T17:46:31;17.90;99.90
48604;DHT22;32708;51.212;6.788;2022-09-09T17:49:07;17.80;99.90
48604;DHT22;32708;51.212;6.788;2022-09-09T17:51:35;17.90;99.90
48604;DHT22;32708;51.212;6.788;2022-09-09T17:54:10;17.90;99.90
48604;DHT22;32708;51.212;6.788;2022-09-09T17:56:37;18.00;99.90
48604;DHT22;32708;51.212;6.788;2022-09-09T17:59:06;17.90;99.90
48604;DHT22;32708;51.212;6.788;2022-09-09T18:01:35;17.90;99.90
48604;DHT22;32708;51.212;6.788;2022-09-09T18:04:05;17.90;99.90
48604;DHT22;32708;51.212;6.788;2022-09-09T18:06:34;17.90;99.90
48604;DHT22;32708;51.212;6.788;2022-09-09T18:09:06;18.00;99.90
48604;DHT22;32708;51.212;6.788;2022-09-09T18:11:39;17.80;99.90
48604;DHT22;32708;51.212;6.788;2022-09-09T18:14:11;17.90;99.90
48604;DHT22;32708;51.212;6.788;2022-09-09T18:16:40;17.90;99.90
48604;DHT22;32708;51.212;6.788;2022-09-09T18:19:09;18.00;99.90
48604;DHT22;32708;51.212;6.788;2022-09-09T18:21:39;17.90;99.90
48604;DHT22;32708;51.212;6.788;2022-09-09T18:24:07;17.90;99.90
48604;DHT22;32708;51.212;6.788;2022-09-09T18:26:34;17.90;99.90
48604;DHT22;32708;51.212;6.788;2022-09-09T18:29:07;17.90;99.90
48604;DHT22;32708;51.212;6.788;2022-09-09T18:31:35;17.90;99.90
48604;DHT22;32708;51.212;6.788;2022-09-09T18:34:08;18.00;99.90
48604;DHT22;32708;51.212;6.788;2022-09-09T18:36:41;18.00;99.90
48604;DHT22;32708;51.212;6.788;2022-09-09T18:39:10;18.00;99.90
48604;DHT22;32708;51.212;6.788;2022-09-09T18:41:40;18.00;99.90
48604;DHT22;32708;51.212;6.788;2022-09-09T18:44:15;18.00;99.90